Time;durP1;ratioP1;P1;durP2;ratioP2;P2;SDS_P1;SDS_P2;PMS_P1;PMS_P2;Temp;Humidity;BMP_temperature;BMP_pressure;BME280_temperature;BME280_humidity;BME280_pressure;Samples;Min_cycle;Max_cycle;Signal;HPM_P1;HPM_P2
2022/11/06 00:03:40;;;;;;;7.25;2.55;;;;;;;;;;8254769;28;20886;-62
2022/11/06 00:07:43;;;;;;;7.07;2.15;;;;;;;;;;8270934;28;20074;-61
2022/11/06 00:11:44;;;;;;;7.07;2.70;;;;;;;;;;8268851;28;20111;-63
2022/11/06 00:15:44;;;;;;;6.35;2.22;;;;;;;;;;8271243;28;20864;-61
2022/11/06 00:19:45;;;;;;;5.75;2.30;;;;;;;;;;8270693;28;20136;-62
2022/11/06 00:23:45;;;;;;;4.32;2.15;;;;;;;;;;8272513;28;20033;-61
2022/11/06 00:27:46;;;;;;;11.23;2.77;;;;;;;;;;8269282;28;20834;-62
2022/11/06 00:31:48;;;;;;;5.50;2.35;;;;;;;;;;8268903;28;20781;-61
2022/11/06 00:35:48;;;;;;;6.35;2.33;;;;;;;;;;8267753;28;20542;-61
2022/11/06 00:39:48;;;;;;;10.13;2.80;;;;;;;;;;8256540;28;20052;-61
2022/11/06 00:43:51;;;;;;;4.82;1.90;;;;;;;;;;8267410;28;20033;-61
2022/11/06 00:47:51;;;;;;;3.65;1.88;;;;;;;;;;8270411;28;20041;-62
2022/11/06 00:51:51;;;;;;;4.43;2.13;;;;;;;;;;8269676;28;20021;-62
2022/11/06 00:55:51;;;;;;;3.53;2.13;;;;;;;;;;8268674;28;20283;-62
2022/11/06 00:59:51;;;;;;;4.43;2.08;;;;;;;;;;8271098;28;20049;-61
2022/11/06 01:03:59;;;;;;;7.70;2.22;;;;;;;;;;8267339;28;20037;-61
2022/11/06 01:07:59;;;;;;;4.15;2.15;;;;;;;;;;8267283;28;20773;-62
2022/11/06 01:11:59;;;;;;;5.78;2.33;;;;;;;;;;8269265;28;20080;-61
2022/11/06 01:15:59;;;;;;;4.82;2.40;;;;;;;;;;8264762;28;20112;-61
2022/11/06 01:19:59;;;;;;;4.63;2.10;;;;;;;;;;8268718;28;20501;-61
2022/11/06 01:24:05;;;;;;;3.80;2.42;;;;;;;;;;8271394;28;20315;-61
2022/11/06 01:28:05;;;;;;;8.85;2.90;;;;;;;;;;8270723;28;20017;-61
2022/11/06 01:32:05;;;;;;;4.93;2.83;;;;;;;;;;8269095;28;20720;-61
2022/11/06 01:36:07;;;;;;;9.48;3.75;;;;;;;;;;8271135;28;20502;-61
2022/11/06 01:40:08;;;;;;;8.80;4.55;;;;;;;;;;8271313;28;20764;-61
2022/11/06 01:44:27;;;;;;;16.10;4.32;;;;;;;;;;8272153;28;20466;-61
2022/11/06 01:48:27;;;;;;;13.00;5.22;;;;;;;;;;8276975;28;20044;-61
2022/11/06 01:52:29;;;;;;;12.55;5.22;;;;;;;;;;8275585;28;20029;-61
2022/11/06 01:56:30;;;;;;;8.77;4.15;;;;;;;;;;8277150;28;20314;-62
2022/11/06 02:00:31;;;;;;;9.73;4.07;;;;;;;;;;8276670;28;20775;-61
2022/11/06 02:04:34;;;;;;;6.82;3.47;;;;;;;;;;8277606;28;20289;-61
2022/11/06 02:08:34;;;;;;;7.28;3.05;;;;;;;;;;8276952;28;20030;-61
2022/11/06 02:12:43;;;;;;;7.70;3.30;;;;;;;;;;8273849;28;20976;-61
2022/11/06 02:16:46;;;;;;;6.03;3.03;;;;;;;;;;8272466;28;20968;-61
2022/11/06 02:20:56;;;;;;;6.07;2.50;;;;;;;;;;8274651;28;20239;-61
2022/11/06 02:25:15;;;;;;;4.97;2.53;;;;;;;;;;8276593;28;20124;-60
2022/11/06 02:29:18;;;;;;;5.13;2.78;;;;;;;;;;8276752;28;20100;-62
2022/11/06 02:33:25;;;;;;;5.00;2.70;;;;;;;;;;8274437;28;20033;-62
2022/11/06 02:37:28;;;;;;;4.30;2.58;;;;;;;;;;8274295;28;20076;-61
2022/11/06 02:41:31;;;;;;;10.18;2.83;;;;;;;;;;8273815;28;20025;-61
2022/11/06 02:45:34;;;;;;;6.45;2.25;;;;;;;;;;8273647;28;20034;-62
2022/11/06 02:49:41;;;;;;;3.50;2.50;;;;;;;;;;8276104;28;20014;-61
2022/11/06 02:53:43;;;;;;;3.70;2.20;;;;;;;;;;8274625;28;20033;-62
2022/11/06 02:57:46;;;;;;;7.80;2.50;;;;;;;;;;8272649;28;20026;-61
2022/11/06 03:02:00;;;;;;;5.18;2.30;;;;;;;;;;8256335;28;20046;-61
2022/11/06 03:06:05;;;;;;;5.05;2.30;;;;;;;;;;8273997;28;20024;-61
2022/11/06 03:10:06;;;;;;;4.30;2.50;;;;;;;;;;8256970;28;20034;-61
2022/11/06 03:14:09;;;;;;;5.57;2.60;;;;;;;;;;8271425;28;20029;-61
2022/11/06 03:18:15;;;;;;;2.80;2.05;;;;;;;;;;8274178;28;20163;-61
2022/11/06 03:22:25;;;;;;;6.18;2.30;;;;;;;;;;8273495;28;20022;-61
2022/11/06 03:26:34;;;;;;;5.05;2.20;;;;;;;;;;8274226;28;20021;-61
2022/11/06 03:30:37;;;;;;;3.88;2.55;;;;;;;;;;8272375;28;20045;-61
2022/11/06 03:34:49;;;;;;;5.77;2.33;;;;;;;;;;8274282;28;20033;-61
2022/11/06 03:38:51;;;;;;;9.70;2.60;;;;;;;;;;8271504;28;20021;-62
2022/11/06 03:42:54;;;;;;;6.47;2.90;;;;;;;;;;8274157;28;20068;-62
2022/11/06 03:46:59;;;;;;;3.33;2.40;;;;;;;;;;8273190;28;20033;-62
2022/11/06 03:51:05;;;;;;;5.30;2.55;;;;;;;;;;8271251;28;20516;-61
2022/11/06 03:55:09;;;;;;;5.22;2.25;;;;;;;;;;8272069;28;20033;-62
2022/11/06 03:59:11;;;;;;;3.97;2.20;;;;;;;;;;8271253;28;20021;-62
2022/11/06 04:03:21;;;;;;;7.22;2.38;;;;;;;;;;8271749;28;20038;-61
2022/11/06 04:07:25;;;;;;;4.70;2.20;;;;;;;;;;8269948;28;21248;-62
2022/11/06 04:15:49;;;;;;;4.35;1.90;;;;;;;;;;8270692;28;20097;-62
2022/11/06 04:19:51;;;;;;;5.97;2.10;;;;;;;;;;8272224;28;20478;-61
2022/11/06 04:28:22;;;;;;;3.53;2.25;;;;;;;;;;8271542;28;20379;-61
2022/11/06 04:32:31;;;;;;;6.97;2.58;;;;;;;;;;8271109;28;20036;-62
2022/11/06 04:36:41;;;;;;;7.20;3.78;;;;;;;;;;8270978;28;20021;-62
2022/11/06 04:40:50;;;;;;;5.38;3.20;;;;;;;;;;8269678;28;20593;-65
2022/11/06 04:44:53;;;;;;;5.43;3.90;;;;;;;;;;8273410;28;20085;-61
2022/11/06 04:48:53;;;;;;;8.93;3.15;;;;;;;;;;8272019;28;20743;-62
2022/11/06 04:52:54;;;;;;;4.10;2.65;;;;;;;;;;8272572;28;20436;-62
2022/11/06 04:56:59;;;;;;;4.18;2.35;;;;;;;;;;8271612;28;20026;-61
2022/11/06 05:00:59;;;;;;;7.53;2.22;;;;;;;;;;8270309;28;20029;-62
2022/11/06 05:04:59;;;;;;;4.80;1.90;;;;;;;;;;8268710;28;20032;-62
2022/11/06 05:09:00;;;;;;;2.65;1.98;;;;;;;;;;8271715;28;20025;-61
2022/11/06 05:13:00;;;;;;;4.32;2.33;;;;;;;;;;8269764;28;20479;-61
2022/11/06 05:17:00;;;;;;;3.95;2.90;;;;;;;;;;8270254;28;20061;-61
2022/11/06 05:25:19;;;;;;;7.68;3.97;;;;;;;;;;8268395;28;20858;-61
2022/11/06 05:29:19;;;;;;;6.15;3.28;;;;;;;;;;8269239;28;20030;-61
2022/11/06 05:33:20;;;;;;;6.88;3.10;;;;;;;;;;8270725;28;20098;-62
2022/11/06 05:37:20;;;;;;;3.42;2.55;;;;;;;;;;8270369;28;20590;-68
2022/11/06 05:41:20;;;;;;;3.70;2.22;;;;;;;;;;8268298;28;20116;-61
2022/11/06 05:45:21;;;;;;;3.47;2.50;;;;;;;;;;8270873;28;20997;-62
2022/11/06 05:49:21;;;;;;;3.33;2.13;;;;;;;;;;8271958;28;20025;-61
2022/11/06 05:53:21;;;;;;;6.72;3.30;;;;;;;;;;8271128;28;20096;-61
2022/11/06 05:57:21;;;;;;;5.20;3.00;;;;;;;;;;8270055;28;20401;-61
2022/11/06 06:01:21;;;;;;;5.85;3.22;;;;;;;;;;8270776;28;20056;-62
2022/11/06 06:05:22;;;;;;;4.50;2.97;;;;;;;;;;8269478;28;20032;-61
2022/11/06 06:09:22;;;;;;;4.37;2.83;;;;;;;;;;8270452;28;20033;-62
2022/11/06 06:13:22;;;;;;;5.50;2.93;;;;;;;;;;8252920;28;20399;-61
2022/11/06 06:17:22;;;;;;;4.10;2.90;;;;;;;;;;8268989;28;20277;-60
2022/11/06 06:21:24;;;;;;;3.45;2.85;;;;;;;;;;8269202;28;20029;-62
2022/11/06 06:25:25;;;;;;;3.95;2.80;;;;;;;;;;8271501;28;20033;-62
2022/11/06 06:29:25;;;;;;;6.30;3.28;;;;;;;;;;8269157;28;20090;-61
2022/11/06 06:33:25;;;;;;;4.22;3.08;;;;;;;;;;8275839;28;20041;-61
2022/11/06 06:37:25;;;;;;;6.90;3.13;;;;;;;;;;8273472;28;21006;-61
2022/11/06 06:41:26;;;;;;;6.00;3.57;;;;;;;;;;8273806;28;20025;-61
2022/11/06 06:45:26;;;;;;;7.05;3.88;;;;;;;;;;8275601;28;20412;-62
2022/11/06 06:49:26;;;;;;;6.45;3.95;;;;;;;;;;8275846;28;20029;-62
2022/11/06 06:53:27;;;;;;;6.07;3.00;;;;;;;;;;8272877;28;20036;-61
2022/11/06 06:57:27;;;;;;;6.00;3.50;;;;;;;;;;8274514;28;20448;-62
2022/11/06 07:01:27;;;;;;;5.45;3.40;;;;;;;;;;8274719;28;20095;-63
2022/11/06 07:05:27;;;;;;;4.35;3.67;;;;;;;;;;8274076;28;20036;-63
2022/11/06 07:09:31;;;;;;;747.60;19.80;;;;;;;;;;8272515;28;20024;-62
2022/11/06 07:13:31;;;;;;;215.52;6.82;;;;;;;;;;8272559;28;20057;-62
2022/11/06 07:17:31;;;;;;;431.08;11.82;;;;;;;;;;8271170;28;20041;-62
2022/11/06 07:21:32;;;;;;;257.95;7.30;;;;;;;;;;8271761;28;20084;-63
2022/11/06 07:25:32;;;;;;;321.67;8.40;;;;;;;;;;8271955;28;20034;-62
2022/11/06 07:29:32;;;;;;;85.03;3.47;;;;;;;;;;8271299;28;20029;-62
2022/11/06 07:33:33;;;;;;;61.28;3.88;;;;;;;;;;8269643;28;20647;-62
2022/11/06 07:37:34;;;;;;;9.73;3.47;;;;;;;;;;8270724;28;20646;-62
2022/11/06 07:41:34;;;;;;;6.03;3.33;;;;;;;;;;8262783;28;20268;-62
2022/11/06 07:45:34;;;;;;;8.10;5.37;;;;;;;;;;8262204;28;20092;-62
2022/11/06 07:49:35;;;;;;;7.05;4.50;;;;;;;;;;8264294;28;20278;-62
2022/11/06 07:53:35;;;;;;;4.57;2.88;;;;;;;;;;8260607;28;20021;-62
2022/11/06 07:57:36;;;;;;;5.22;3.42;;;;;;;;;;8260157;28;20021;-62
2022/11/06 08:01:36;;;;;;;6.45;3.70;;;;;;;;;;8259361;28;20041;-62
2022/11/06 08:05:36;;;;;;;17.00;7.55;;;;;;;;;;8259738;28;20514;-62
2022/11/06 08:09:36;;;;;;;9.77;4.68;;;;;;;;;;8261058;28;20554;-62
2022/11/06 08:13:37;;;;;;;9.57;3.40;;;;;;;;;;8263335;28;20561;-62
2022/11/06 08:17:37;;;;;;;6.95;3.90;;;;;;;;;;8261473;28;20653;-62
2022/11/06 08:21:37;;;;;;;5.13;3.22;;;;;;;;;;8262692;28;20018;-63
2022/11/06 08:25:38;;;;;;;6.20;4.40;;;;;;;;;;8262738;28;20087;-62
2022/11/06 08:29:38;;;;;;;4.35;3.88;;;;;;;;;;8263302;28;20288;-62
2022/11/06 08:33:38;;;;;;;5.67;4.83;;;;;;;;;;8262865;28;20402;-62
2022/11/06 08:37:38;;;;;;;5.70;5.10;;;;;;;;;;8262054;28;20769;-62
2022/11/06 08:41:39;;;;;;;6.28;5.20;;;;;;;;;;8258921;28;20021;-62
2022/11/06 08:45:40;;;;;;;6.90;5.97;;;;;;;;;;8258423;28;20064;-62
2022/11/06 08:49:40;;;;;;;8.20;5.25;;;;;;;;;;8258252;28;20393;-62
2022/11/06 08:53:40;;;;;;;6.90;5.30;;;;;;;;;;8259558;28;20029;-62
2022/11/06 08:57:41;;;;;;;8.18;6.05;;;;;;;;;;8260011;28;20518;-61
2022/11/06 09:01:41;;;;;;;9.95;6.55;;;;;;;;;;8260278;28;20531;-62
2022/11/06 09:05:41;;;;;;;6.55;5.38;;;;;;;;;;8259849;28;20037;-62
2022/11/06 09:09:41;;;;;;;11.23;5.22;;;;;;;;;;8261434;28;20179;-61
2022/11/06 09:13:41;;;;;;;12.10;4.22;;;;;;;;;;8259763;28;20040;-59
2022/11/06 09:17:43;;;;;;;10.48;5.18;;;;;;;;;;8261250;28;20057;-61
2022/11/06 09:21:43;;;;;;;20.80;4.68;;;;;;;;;;8261060;28;20724;-61
2022/11/06 09:25:43;;;;;;;41.60;5.15;;;;;;;;;;8247911;28;20037;-62
2022/11/06 09:29:43;;;;;;;10.80;4.68;;;;;;;;;;8258270;28;20033;-61
2022/11/06 09:33:43;;;;;;;22.85;4.80;;;;;;;;;;8259465;28;20073;-61
2022/11/06 09:37:44;;;;;;;5.10;4.30;;;;;;;;;;8262588;28;20487;-61
2022/11/06 09:41:52;;;;;;;25.25;4.70;;;;;;;;;;8258767;28;20639;-61
2022/11/06 09:45:53;;;;;;;27.15;4.88;;;;;;;;;;8260150;28;20056;-62
2022/11/06 09:49:55;;;;;;;62.13;6.70;;;;;;;;;;8258875;28;20504;-62
2022/11/06 09:53:58;;;;;;;307.65;11.43;;;;;;;;;;8259639;28;20145;-61
2022/11/06 09:58:10;;;;;;;149.88;8.55;;;;;;;;;;8234421;28;20053;-61
2022/11/06 10:02:22;;;;;;;315.38;12.25;;;;;;;;;;8307584;28;20036;-62
2022/11/06 10:06:23;;;;;;;241.23;9.40;;;;;;;;;;8336570;28;20116;-64
2022/11/06 10:10:46;;;;;;;214.07;9.13;;;;;;;;;;8334461;28;20051;-61
2022/11/06 10:15:00;;;;;;;12.35;4.95;;;;;;;;;;8326827;28;20037;-61
2022/11/06 10:19:13;;;;;;;13.10;5.55;;;;;;;;;;8338388;28;20389;-62
2022/11/06 10:23:26;;;;;;;33.53;6.90;;;;;;;;;;8264902;28;20041;-61
2022/11/06 10:27:34;;;;;;;19.63;8.83;;;;;;;;;;8344846;28;20037;-61
2022/11/06 10:31:43;;;;;;;53.17;6.65;;;;;;;;;;8352067;28;20266;-61
2022/11/06 10:36:04;;;;;;;20.92;5.88;;;;;;;;;;8348971;28;20493;-61
2022/11/06 10:40:06;;;;;;;38.08;9.30;;;;;;;;;;8351062;28;20900;-61
2022/11/06 10:44:26;;;;;;;58.33;11.10;;;;;;;;;;8349872;28;20032;-61
2022/11/06 10:48:29;;;;;;;12.68;8.25;;;;;;;;;;8350136;28;20556;-61
2022/11/06 10:52:48;;;;;;;12.30;9.13;;;;;;;;;;8349301;28;20024;-61
2022/11/06 10:57:06;;;;;;;10.57;7.40;;;;;;;;;;8351174;28;20037;-61
2022/11/06 11:01:10;;;;;;;14.65;8.18;;;;;;;;;;8347654;28;20410;-61
2022/11/06 11:05:15;;;;;;;12.57;8.05;;;;;;;;;;8348327;28;20668;-61
2022/11/06 11:09:29;;;;;;;11.38;8.30;;;;;;;;;;8344041;28;20051;-61
2022/11/06 11:13:29;;;;;;;11.32;7.85;;;;;;;;;;8345922;28;20032;-61
2022/11/06 11:17:29;;;;;;;12.05;8.68;;;;;;;;;;8348780;28;20561;-61
2022/11/06 11:21:30;;;;;;;13.85;8.52;;;;;;;;;;8343850;28;20031;-61
2022/11/06 11:25:30;;;;;;;12.87;8.77;;;;;;;;;;8346081;28;20197;-61
2022/11/06 11:29:31;;;;;;;13.13;8.27;;;;;;;;;;8345372;28;20373;-61
2022/11/06 11:33:32;;;;;;;10.57;7.60;;;;;;;;;;8347264;28;20036;-61
2022/11/06 11:37:34;;;;;;;11.38;7.57;;;;;;;;;;8343800;28;20214;-61
2022/11/06 11:41:35;;;;;;;19.27;9.40;;;;;;;;;;8345143;28;20052;-60
2022/11/06 11:45:35;;;;;;;11.52;7.90;;;;;;;;;;8344819;28;20029;-61
2022/11/06 11:49:35;;;;;;;12.90;8.07;;;;;;;;;;8343004;28;20048;-61
2022/11/06 11:53:37;;;;;;;9.80;7.40;;;;;;;;;;8346014;28;20043;-61
2022/11/06 11:57:42;;;;;;;16.33;9.63;;;;;;;;;;8344059;28;20059;-61
2022/11/06 12:01:43;;;;;;;12.05;7.97;;;;;;;;;;8355862;28;20028;-62
2022/11/06 12:05:43;;;;;;;12.83;8.20;;;;;;;;;;8357596;28;20039;-61
2022/11/06 12:09:43;;;;;;;9.70;7.15;;;;;;;;;;8356527;28;20278;-62
2022/11/06 12:13:44;;;;;;;11.25;7.07;;;;;;;;;;8348563;28;20029;-62
2022/11/06 12:17:47;;;;;;;15.93;9.37;;;;;;;;;;8352960;28;20884;-61
2022/11/06 12:21:52;;;;;;;27.37;13.70;;;;;;;;;;8345647;28;20262;-62
2022/11/06 12:26:14;;;;;;;21.48;11.02;;;;;;;;;;8350353;28;20277;-61
2022/11/06 12:30:16;;;;;;;9.13;5.82;;;;;;;;;;8347512;28;20028;-62
2022/11/06 12:34:21;;;;;;;8.93;6.20;;;;;;;;;;8344101;28;20519;-62
2022/11/06 12:38:40;;;;;;;11.13;6.43;;;;;;;;;;8338722;28;20540;-62
2022/11/06 12:42:44;;;;;;;11.68;6.88;;;;;;;;;;8347307;28;20072;-61
2022/11/06 12:46:48;;;;;;;14.80;6.25;;;;;;;;;;8352064;28;20032;-62
2022/11/06 12:50:55;;;;;;;10.55;6.32;;;;;;;;;;8354751;28;20778;-61
2022/11/06 12:55:14;;;;;;;12.10;6.78;;;;;;;;;;8354958;28;20056;-61
2022/11/06 12:59:20;;;;;;;11.15;6.15;;;;;;;;;;8353343;28;20595;-61
2022/11/06 13:03:31;;;;;;;12.75;7.30;;;;;;;;;;8355068;28;20536;-61
2022/11/06 13:07:31;;;;;;;11.82;7.25;;;;;;;;;;8342168;28;20024;-61
2022/11/06 13:11:31;;;;;;;11.60;7.13;;;;;;;;;;8354470;28;20079;-62
2022/11/06 13:15:39;;;;;;;9.90;6.00;;;;;;;;;;8352744;28;20128;-62
2022/11/06 13:19:47;;;;;;;8.52;5.10;;;;;;;;;;8357047;28;20013;-62
2022/11/06 13:23:52;;;;;;;9.65;5.82;;;;;;;;;;8352206;28;20040;-62
2022/11/06 13:27:55;;;;;;;6.25;4.70;;;;;;;;;;8352516;28;20059;-63
2022/11/06 13:31:57;;;;;;;9.90;6.47;;;;;;;;;;8352534;28;20040;-61
2022/11/06 13:35:57;;;;;;;9.75;5.50;;;;;;;;;;8351902;28;20831;-61
2022/11/06 13:40:03;;;;;;;8.18;5.90;;;;;;;;;;8352653;28;20134;-64
2022/11/06 13:44:04;;;;;;;9.43;5.85;;;;;;;;;;8360332;28;20119;-62
2022/11/06 13:48:17;;;;;;;6.40;4.85;;;;;;;;;;8353654;28;20046;-62
2022/11/06 13:52:47;;;;;;;7.30;4.90;;;;;;;;;;8360805;28;20093;-63
2022/11/06 13:57:03;;;;;;;7.60;5.38;;;;;;;;;;8344478;28;20043;-63
2022/11/06 14:01:17;;;;;;;5.28;4.30;;;;;;;;;;8359178;28;20028;-62
2022/11/06 14:05:22;;;;;;;4.70;4.10;;;;;;;;;;8358213;28;20448;-62
2022/11/06 14:09:24;;;;;;;4.43;3.25;;;;;;;;;;8358736;28;20075;-62
2022/11/06 14:13:32;;;;;;;4.68;3.67;;;;;;;;;;8353720;28;20059;-62
2022/11/06 14:17:33;;;;;;;4.55;3.08;;;;;;;;;;8361176;28;20691;-60
2022/11/06 14:21:36;;;;;;;4.97;3.70;;;;;;;;;;8335623;28;20020;-62
2022/11/06 14:25:39;;;;;;;4.17;2.90;;;;;;;;;;8358454;28;20024;-61
2022/11/06 14:29:39;;;;;;;5.65;3.00;;;;;;;;;;8356029;28;20036;-62
2022/11/06 14:33:39;;;;;;;10.30;3.90;;;;;;;;;;8358765;28;20042;-61
2022/11/06 14:37:42;;;;;;;4.43;3.05;;;;;;;;;;8357981;28;20034;-62
2022/11/06 14:41:43;;;;;;;3.73;2.70;;;;;;;;;;8355275;28;20089;-62
2022/11/06 14:45:58;;;;;;;6.22;3.03;;;;;;;;;;8356364;28;20040;-62
2022/11/06 14:50:19;;;;;;;6.95;3.65;;;;;;;;;;8357153;28;20020;-62
2022/11/06 14:54:20;;;;;;;5.55;4.10;;;;;;;;;;8343638;28;20041;-61
2022/11/06 14:58:26;;;;;;;6.15;4.95;;;;;;;;;;8358397;28;20028;-62
2022/11/06 15:02:28;;;;;;;8.38;3.67;;;;;;;;;;8356727;28;20038;-61
2022/11/06 15:06:28;;;;;;;4.35;3.28;;;;;;;;;;8355163;28;20032;-62
2022/11/06 15:10:40;;;;;;;4.90;3.85;;;;;;;;;;8355208;28;20467;-62
2022/11/06 15:14:40;;;;;;;4.22;3.50;;;;;;;;;;8358309;28;20568;-61
2022/11/06 15:18:43;;;;;;;5.57;2.88;;;;;;;;;;8356401;28;20036;-62
2022/11/06 15:22:48;;;;;;;4.72;3.05;;;;;;;;;;8354830;28;20017;-63
2022/11/06 15:26:50;;;;;;;3.25;2.70;;;;;;;;;;8355633;28;20028;-62
2022/11/06 15:31:26;;;;;;;5.80;2.90;;;;;;;;;;8355891;28;20068;-62
2022/11/06 15:35:29;;;;;;;4.90;3.35;;;;;;;;;;8257445;28;20044;-62
2022/11/06 15:39:49;;;;;;;4.45;2.78;;;;;;;;;;8354687;28;20035;-62
2022/11/06 15:43:51;;;;;;;3.78;2.90;;;;;;;;;;8351515;28;20028;-61
2022/11/06 15:48:00;;;;;;;2.92;2.63;;;;;;;;;;8344261;28;20774;-61
2022/11/06 15:52:01;;;;;;;6.70;3.17;;;;;;;;;;8346666;28;20350;-61
2022/11/06 15:56:03;;;;;;;6.32;3.67;;;;;;;;;;8345849;28;20031;-61
2022/11/06 16:00:10;;;;;;;4.00;3.30;;;;;;;;;;8344041;28;20047;-62
2022/11/06 16:04:12;;;;;;;3.92;3.03;;;;;;;;;;8343918;28;20485;-61
2022/11/06 16:08:13;;;;;;;4.45;3.30;;;;;;;;;;8346971;28;20021;-61
2022/11/06 16:12:14;;;;;;;3.60;2.63;;;;;;;;;;8353952;28;20210;-63
2022/11/06 16:16:33;;;;;;;3.25;2.90;;;;;;;;;;8352821;28;20147;-62
2022/11/06 16:20:34;;;;;;;3.35;2.65;;;;;;;;;;8350170;28;20021;-61
2022/11/06 16:24:46;;;;;;;4.55;3.55;;;;;;;;;;8348448;28;20025;-62
2022/11/06 16:28:47;;;;;;;2.90;2.38;;;;;;;;;;8351337;28;20024;-61
2022/11/06 16:32:48;;;;;;;2.58;2.38;;;;;;;;;;8350951;28;20079;-61
2022/11/06 16:36:56;;;;;;;2.83;2.40;;;;;;;;;;8350915;28;20191;-61
2022/11/06 16:41:00;;;;;;;3.72;3.00;;;;;;;;;;8351484;28;20025;-62
2022/11/06 16:45:02;;;;;;;2.30;2.10;;;;;;;;;;8354615;28;20071;-62
2022/11/06 16:49:22;;;;;;;3.67;2.40;;;;;;;;;;8347838;28;20064;-62
2022/11/06 16:53:25;;;;;;;4.10;2.88;;;;;;;;;;8342424;28;20308;-61
2022/11/06 16:57:26;;;;;;;8.77;6.38;;;;;;;;;;8343775;28;20054;-61
2022/11/06 17:01:28;;;;;;;10.60;7.05;;;;;;;;;;8343265;28;20342;-61
2022/11/06 17:05:32;;;;;;;12.55;6.28;;;;;;;;;;8339174;28;20044;-62
2022/11/06 17:09:33;;;;;;;8.38;4.40;;;;;;;;;;8341066;28;20081;-62
2022/11/06 17:13:33;;;;;;;3.75;2.80;;;;;;;;;;8329139;28;20036;-61
2022/11/06 17:17:33;;;;;;;2.78;2.10;;;;;;;;;;8336550;28;20028;-62
2022/11/06 17:21:33;;;;;;;4.45;2.70;;;;;;;;;;8329054;28;20270;-61
2022/11/06 17:25:34;;;;;;;3.40;3.10;;;;;;;;;;8334017;28;20422;-61
2022/11/06 17:29:35;;;;;;;6.83;4.73;;;;;;;;;;8337009;28;20282;-61
2022/11/06 17:33:35;;;;;;;5.57;3.90;;;;;;;;;;8339039;28;20348;-61
2022/11/06 17:37:35;;;;;;;5.95;4.68;;;;;;;;;;8337857;28;20048;-61
2022/11/06 17:41:36;;;;;;;4.40;3.10;;;;;;;;;;8341759;28;20551;-61
2022/11/06 17:45:37;;;;;;;3.03;2.53;;;;;;;;;;8341037;28;20033;-61
2022/11/06 17:49:37;;;;;;;3.35;2.40;;;;;;;;;;8342319;28;20500;-61
2022/11/06 17:53:37;;;;;;;5.75;3.40;;;;;;;;;;8342337;28;20025;-61
2022/11/06 17:57:38;;;;;;;2.90;2.60;;;;;;;;;;8340572;28;20223;-61
2022/11/06 18:01:38;;;;;;;3.72;2.90;;;;;;;;;;8339641;28;20528;-61
2022/11/06 18:05:49;;;;;;;4.90;2.92;;;;;;;;;;8348127;28;20484;-61
2022/11/06 18:09:49;;;;;;;6.25;3.75;;;;;;;;;;8341625;28;20105;-62
2022/11/06 18:13:50;;;;;;;12.43;7.43;;;;;;;;;;8340516;28;20033;-62
2022/11/06 18:17:50;;;;;;;6.38;4.70;;;;;;;;;;8346157;28;20040;-62
2022/11/06 18:21:52;;;;;;;8.95;6.30;;;;;;;;;;8347307;28;20116;-62
2022/11/06 18:25:56;;;;;;;5.90;2.92;;;;;;;;;;8351049;28;20147;-61
2022/11/06 18:29:56;;;;;;;3.03;2.22;;;;;;;;;;8359148;28;20032;-63
2022/11/06 18:33:57;;;;;;;1.63;1.52;;;;;;;;;;8352244;28;20556;-62
2022/11/06 18:37:57;;;;;;;1.80;1.70;;;;;;;;;;8356964;28;20034;-61
2022/11/06 18:41:57;;;;;;;1.80;1.70;;;;;;;;;;8355139;28;20115;-61
2022/11/06 18:46:01;;;;;;;3.78;3.05;;;;;;;;;;8356377;28;20124;-61
2022/11/06 18:50:02;;;;;;;2.47;1.98;;;;;;;;;;8350300;28;20614;-62
2022/11/06 18:54:03;;;;;;;2.72;2.10;;;;;;;;;;8353968;28;20032;-62
2022/11/06 18:58:04;;;;;;;3.00;2.20;;;;;;;;;;8357890;28;20890;-63
2022/11/06 19:02:05;;;;;;;2.97;1.90;;;;;;;;;;8348752;28;20079;-62
2022/11/06 19:06:09;;;;;;;2.97;2.05;;;;;;;;;;8352340;28;20032;-61
2022/11/06 19:10:11;;;;;;;;;;;;;;;;;;8353876;28;20338;-64
2022/11/06 19:14:11;;;;;;;1.95;1.50;;;;;;;;;;8357646;28;19916;-61
2022/11/06 19:18:12;;;;;;;4.07;2.15;;;;;;;;;;8349233;28;20868;-61
2022/11/06 19:22:12;;;;;;;2.47;1.90;;;;;;;;;;8351803;28;20055;-62
2022/11/06 19:26:14;;;;;;;2.07;1.40;;;;;;;;;;8354480;28;20279;-62
2022/11/06 19:30:14;;;;;;;3.28;1.77;;;;;;;;;;8357189;28;20327;-61
2022/11/06 19:34:15;;;;;;;2.97;2.13;;;;;;;;;;8358322;28;20028;-62
2022/11/06 19:38:15;;;;;;;3.17;1.75;;;;;;;;;;8352739;28;20282;-62
2022/11/06 19:42:15;;;;;;;6.78;4.15;;;;;;;;;;8351762;28;20027;-61
2022/11/06 19:46:18;;;;;;;4.55;2.80;;;;;;;;;;8351839;28;20033;-62
2022/11/06 19:50:19;;;;;;;5.05;1.88;;;;;;;;;;8352287;28;20012;-62
2022/11/06 19:54:19;;;;;;;1.55;1.40;;;;;;;;;;8352715;28;20119;-62
2022/11/06 19:58:19;;;;;;;2.50;1.47;;;;;;;;;;8350248;28;20093;-60
2022/11/06 20:02:20;;;;;;;16.02;6.30;;;;;;;;;;8351279;28;20275;-62
2022/11/06 20:06:21;;;;;;;5.75;2.67;;;;;;;;;;8347403;28;20035;-63
2022/11/06 20:10:21;;;;;;;6.82;3.28;;;;;;;;;;8349952;28;20029;-61
2022/11/06 20:14:22;;;;;;;2.55;1.60;;;;;;;;;;8353429;28;20028;-63
2022/11/06 20:18:22;;;;;;;2.30;1.43;;;;;;;;;;8350266;28;20112;-62
2022/11/06 20:22:23;;;;;;;1.40;1.30;;;;;;;;;;8350476;28;20278;-62
2022/11/06 20:26:24;;;;;;;2.65;1.30;;;;;;;;;;8352703;28;20020;-62
2022/11/06 20:30:24;;;;;;;1.20;1.10;;;;;;;;;;8354317;28;20048;-61
2022/11/06 20:34:24;;;;;;;2.97;1.65;;;;;;;;;;8349640;28;20139;-62
2022/11/06 20:38:25;;;;;;;1.88;1.17;;;;;;;;;;8355800;28;20128;-62
2022/11/06 20:42:26;;;;;;;2.17;1.50;;;;;;;;;;8351069;28;20143;-61
2022/11/06 20:46:26;;;;;;;1.40;1.30;;;;;;;;;;8351655;28;20060;-61
2022/11/06 20:50:27;;;;;;;2.83;1.50;;;;;;;;;;8354652;28;20059;-62
2022/11/06 20:54:27;;;;;;;2.03;1.40;;;;;;;;;;8353980;28;20376;-62
2022/11/06 20:58:28;;;;;;;1.70;1.30;;;;;;;;;;8348900;28;20931;-62
2022/11/06 21:02:28;;;;;;;2.78;1.65;;;;;;;;;;8352344;28;20032;-62
2022/11/06 21:06:29;;;;;;;1.20;1.15;;;;;;;;;;8352525;28;20035;-61
2022/11/06 21:10:30;;;;;;;1.45;1.35;;;;;;;;;;8349367;28;20033;-62
2022/11/06 21:14:30;;;;;;;2.50;1.45;;;;;;;;;;8349216;28;20127;-61
2022/11/06 21:18:33;;;;;;;1.90;1.50;;;;;;;;;;8349433;28;20091;-62
2022/11/06 21:22:33;;;;;;;4.03;1.90;;;;;;;;;;8355060;28;20020;-62
2022/11/06 21:26:35;;;;;;;2.90;1.70;;;;;;;;;;8354461;28;20036;-63
2022/11/06 21:30:45;;;;;;;5.13;2.10;;;;;;;;;;8352170;28;20036;-61
2022/11/06 21:34:45;;;;;;;4.07;2.10;;;;;;;;;;8349522;28;20809;-62
2022/11/06 21:38:46;;;;;;;3.13;2.03;;;;;;;;;;8351887;28;20028;-62
2022/11/06 21:42:46;;;;;;;2.83;2.22;;;;;;;;;;8334110;28;20028;-62
2022/11/06 21:46:46;;;;;;;4.88;2.20;;;;;;;;;;8356995;28;20646;-62
2022/11/06 21:50:47;;;;;;;5.05;2.58;;;;;;;;;;8352533;28;20038;-62
2022/11/06 21:59:07;;;;;;;4.65;2.55;;;;;;;;;;8359575;28;20044;-63
2022/11/06 22:03:07;;;;;;;5.13;2.47;;;;;;;;;;8361257;28;20033;-61
2022/11/06 22:07:08;;;;;;;6.40;2.58;;;;;;;;;;8363454;28;20040;-61
2022/11/06 22:11:12;;;;;;;4.93;2.78;;;;;;;;;;8360312;28;20467;-61
2022/11/06 22:15:12;;;;;;;;;;;;;;;;;;8359975;28;20063;-62
2022/11/06 22:19:13;;;;;;;6.88;2.20;;;;;;;;;;8363471;28;19912;-61
2022/11/06 22:23:13;;;;;;;4.50;2.75;;;;;;;;;;8356793;28;20482;-61
2022/11/06 22:27:13;;;;;;;3.08;2.47;;;;;;;;;;8360001;28;20075;-62
2022/11/06 22:31:14;;;;;;;4.28;2.95;;;;;;;;;;8360312;28;21061;-63
2022/11/06 22:35:14;;;;;;;4.07;2.30;;;;;;;;;;8363498;28;20147;-62
2022/11/06 22:39:14;;;;;;;4.47;2.53;;;;;;;;;;8361465;28;20135;-61
2022/11/06 22:43:15;;;;;;;3.93;2.37;;;;;;;;;;8361398;28;20024;-62
2022/11/06 22:47:15;;;;;;;3.27;2.10;;;;;;;;;;8361122;28;20278;-62
2022/11/06 22:51:16;;;;;;;3.95;2.47;;;;;;;;;;8360233;28;21175;-62
2022/11/06 22:55:16;;;;;;;5.50;2.50;;;;;;;;;;8365584;28;20071;-63
2022/11/06 22:59:17;;;;;;;4.38;3.03;;;;;;;;;;8361038;28;20025;-62
2022/11/06 23:03:17;;;;;;;4.13;2.70;;;;;;;;;;8356616;28;20028;-61
2022/11/06 23:07:18;;;;;;;6.40;2.83;;;;;;;;;;8364136;28;20345;-61
2022/11/06 23:11:18;;;;;;;5.20;2.70;;;;;;;;;;8353926;28;20107;-61
2022/11/06 23:15:18;;;;;;;9.88;3.30;;;;;;;;;;8354107;28;20266;-63
2022/11/06 23:19:19;;;;;;;6.20;3.35;;;;;;;;;;8358572;28;20044;-62
2022/11/06 23:23:19;;;;;;;4.30;3.05;;;;;;;;;;8358725;28;20036;-61
2022/11/06 23:27:20;;;;;;;6.47;3.10;;;;;;;;;;8358796;28;20031;-63
2022/11/06 23:31:20;;;;;;;6.22;3.00;;;;;;;;;;8358326;28;20040;-67
2022/11/06 23:35:20;;;;;;;6.90;3.60;;;;;;;;;;8357614;28;20059;-61
2022/11/06 23:39:22;;;;;;;6.20;3.45;;;;;;;;;;8359217;28;20382;-61
2022/11/06 23:43:22;;;;;;;6.97;3.60;;;;;;;;;;8359647;28;20031;-61
2022/11/06 23:47:22;;;;;;;6.75;3.10;;;;;;;;;;8359381;28;20692;-62
2022/11/06 23:51:23;;;;;;;10.73;3.33;;;;;;;;;;8356776;28;20143;-62
2022/11/06 23:55:23;;;;;;;7.28;3.30;;;;;;;;;;8360239;28;20029;-61
2022/11/06 23:59:23;;;;;;;5.68;3.05;;;;;;;;;;8358102;28;20025;-63
